KPIT/PIT METAR and TAF weather

Enter ICAO airport designator
Station Type Date Time Source
KPIT METAR 2020/01/19 14:25 UTC NOAA

KPIT 191425Z 26015G23KT 4SM -SN FEW016 BKN028 OVC036 M06/M11 A2995 RMK AO2 P0000 T10561106


Station Type Date Time Source
KPIT Decoded METAR 2020/01/19 14:25 UTC NOAA

GREATER PITTSBURGH INTERNATIONAL , PA, United States (KPIT) 40-29N 80-14W 357M
Jan 19, 2020 - 09:25 AM EST / 2020.01.19 1425 UTC
Wind: from the W (260 degrees) at 17 MPH (15 KT) gusting to 26 MPH (23 KT):0
Visibility: 4 mile(s):0
Sky conditions: overcast
Weather: light snow
Precipitation last hour: A trace
Temperature: 21.9 F (-5.6 C)
Windchill: 8 F (-13 C):1
Dew Point: 12.9 F (-10.6 C)
Relative Humidity: 67%
Pressure (altimeter): 29.95 in. Hg (1014 hPa)
ob: KPIT 191425Z 26015G23KT 4SM -SN FEW016 BKN028 OVC036 M06/M11 A2995 RMK AO2 P0000 T10561106
cycle: 14

Station Type Date Time Source
KPIT TAF 2020/01/19 14:16 UTC NOAA

TAF
AMD KPIT 191414Z 1914/2018 27010G20KT 5SM -SN OVC022
TEMPO 1914/1916 3SM -SN
FM191600 28010G20KT P6SM VCSH OVC025
FM200200 28010G15KT 4SM -SHSN OVC015
FM200700 28008G16KT P6SM VCSH OVC020
FM201200 32006KT P6SM BKN030

Example: see airport list